sensor_id;sensor_type;location;lat;lon;timestamp;P1;durP1;ratioP1;P2;durP2;ratioP2
33022;SDS011;19390;51.460;5.710;2023-04-06T00:00:37;21.95;;;12.70;;
33022;SDS011;19390;51.460;5.710;2023-04-06T00:03:02;21.55;;;13.65;;
33022;SDS011;19390;51.460;5.710;2023-04-06T00:05:28;26.45;;;15.90;;
33022;SDS011;19390;51.460;5.710;2023-04-06T00:07:55;23.45;;;14.32;;
33022;SDS011;19390;51.460;5.710;2023-04-06T00:10:24;21.38;;;13.52;;
33022;SDS011;19390;51.460;5.710;2023-04-06T00:12:50;23.38;;;14.43;;
33022;SDS011;19390;51.460;5.710;2023-04-06T00:15:15;23.48;;;13.90;;
33022;SDS011;19390;51.460;5.710;2023-04-06T00:17:41;25.27;;;14.07;;
33022;SDS011;19390;51.460;5.710;2023-04-06T00:20:07;23.90;;;14.65;;
33022;SDS011;19390;51.460;5.710;2023-04-06T00:22:33;22.88;;;13.70;;
33022;SDS011;19390;51.460;5.710;2023-04-06T00:24:59;23.15;;;13.80;;
33022;SDS011;19390;51.460;5.710;2023-04-06T00:27:24;24.83;;;14.45;;
33022;SDS011;19390;51.460;5.710;2023-04-06T00:29:50;25.48;;;14.45;;
33022;SDS011;19390;51.460;5.710;2023-04-06T00:32:15;24.90;;;14.75;;
33022;SDS011;19390;51.460;5.710;2023-04-06T00:34:41;22.33;;;14.00;;
33022;SDS011;19390;51.460;5.710;2023-04-06T00:37:06;24.17;;;13.85;;
33022;SDS011;19390;51.460;5.710;2023-04-06T00:39:32;21.55;;;14.60;;
33022;SDS011;19390;51.460;5.710;2023-04-06T00:41:58;23.40;;;13.77;;
33022;SDS011;19390;51.460;5.710;2023-04-06T00:44:23;28.35;;;14.30;;
33022;SDS011;19390;51.460;5.710;2023-04-06T00:46:49;24.80;;;14.60;;
33022;SDS011;19390;51.460;5.710;2023-04-06T00:49:15;24.20;;;13.52;;
33022;SDS011;19390;51.460;5.710;2023-04-06T00:51:41;27.10;;;15.10;;
33022;SDS011;19390;51.460;5.710;2023-04-06T00:54:06;22.60;;;14.32;;
33022;SDS011;19390;51.460;5.710;2023-04-06T00:56:32;24.02;;;15.10;;
33022;SDS011;19390;51.460;5.710;2023-04-06T00:58:57;25.25;;;14.52;;
33022;SDS011;19390;51.460;5.710;2023-04-06T01:01:23;23.45;;;13.57;;
33022;SDS011;19390;51.460;5.710;2023-04-06T01:03:51;25.55;;;14.68;;
33022;SDS011;19390;51.460;5.710;2023-04-06T01:06:16;24.75;;;14.13;;
33022;SDS011;19390;51.460;5.710;2023-04-06T01:08:42;23.92;;;14.63;;
33022;SDS011;19390;51.460;5.710;2023-04-06T01:11:08;26.65;;;14.52;;
33022;SDS011;19390;51.460;5.710;2023-04-06T01:13:33;20.77;;;13.68;;
33022;SDS011;19390;51.460;5.710;2023-04-06T01:15:59;25.27;;;14.57;;
33022;SDS011;19390;51.460;5.710;2023-04-06T01:18:25;23.90;;;15.10;;
33022;SDS011;19390;51.460;5.710;2023-04-06T01:20:51;22.52;;;13.35;;
33022;SDS011;19390;51.460;5.710;2023-04-06T01:23:17;25.60;;;14.23;;
33022;SDS011;19390;51.460;5.710;2023-04-06T01:25:43;21.88;;;13.88;;
33022;SDS011;19390;51.460;5.710;2023-04-06T01:28:08;20.73;;;12.73;;
33022;SDS011;19390;51.460;5.710;2023-04-06T01:30:34;25.42;;;15.07;;
33022;SDS011;19390;51.460;5.710;2023-04-06T01:33:00;22.42;;;14.93;;
33022;SDS011;19390;51.460;5.710;2023-04-06T01:35:26;30.13;;;15.40;;
33022;SDS011;19390;51.460;5.710;2023-04-06T01:37:52;24.77;;;15.18;;
33022;SDS011;19390;51.460;5.710;2023-04-06T01:40:18;26.23;;;15.15;;
33022;SDS011;19390;51.460;5.710;2023-04-06T01:42:43;28.42;;;14.52;;
33022;SDS011;19390;51.460;5.710;2023-04-06T01:45:09;24.80;;;14.63;;
33022;SDS011;19390;51.460;5.710;2023-04-06T01:47:35;23.75;;;15.00;;
33022;SDS011;19390;51.460;5.710;2023-04-06T01:50:01;25.73;;;15.60;;
33022;SDS011;19390;51.460;5.710;2023-04-06T01:52:27;24.77;;;15.10;;
33022;SDS011;19390;51.460;5.710;2023-04-06T01:54:53;25.67;;;15.32;;
33022;SDS011;19390;51.460;5.710;2023-04-06T01:57:19;26.42;;;15.38;;
33022;SDS011;19390;51.460;5.710;2023-04-06T01:59:45;26.42;;;15.40;;
33022;SDS011;19390;51.460;5.710;2023-04-06T02:02:10;25.25;;;15.18;;
33022;SDS011;19390;51.460;5.710;2023-04-06T02:04:37;25.13;;;15.68;;
33022;SDS011;19390;51.460;5.710;2023-04-06T02:07:03;23.48;;;15.35;;
33022;SDS011;19390;51.460;5.710;2023-04-06T02:09:29;27.33;;;16.02;;
33022;SDS011;19390;51.460;5.710;2023-04-06T02:11:55;26.00;;;15.10;;
33022;SDS011;19390;51.460;5.710;2023-04-06T02:14:20;26.02;;;16.02;;
33022;SDS011;19390;51.460;5.710;2023-04-06T02:16:49;28.58;;;16.13;;
33022;SDS011;19390;51.460;5.710;2023-04-06T02:19:15;29.02;;;16.40;;
33022;SDS011;19390;51.460;5.710;2023-04-06T02:21:40;26.58;;;15.95;;
33022;SDS011;19390;51.460;5.710;2023-04-06T02:24:06;30.52;;;16.42;;
33022;SDS011;19390;51.460;5.710;2023-04-06T02:26:32;23.67;;;15.95;;
33022;SDS011;19390;51.460;5.710;2023-04-06T02:28:57;28.02;;;16.67;;
33022;SDS011;19390;51.460;5.710;2023-04-06T02:31:23;28.92;;;16.90;;
33022;SDS011;19390;51.460;5.710;2023-04-06T02:33:48;27.55;;;15.82;;
33022;SDS011;19390;51.460;5.710;2023-04-06T02:36:14;32.15;;;18.27;;
33022;SDS011;19390;51.460;5.710;2023-04-06T02:38:39;29.13;;;16.67;;
33022;SDS011;19390;51.460;5.710;2023-04-06T02:41:05;29.40;;;16.90;;
33022;SDS011;19390;51.460;5.710;2023-04-06T02:43:31;31.75;;;15.82;;
33022;SDS011;19390;51.460;5.710;2023-04-06T02:45:57;27.08;;;16.90;;
33022;SDS011;19390;51.460;5.710;2023-04-06T02:48:23;29.27;;;17.05;;
33022;SDS011;19390;51.460;5.710;2023-04-06T02:50:48;27.85;;;17.65;;
33022;SDS011;19390;51.460;5.710;2023-04-06T02:53:14;30.20;;;18.20;;
33022;SDS011;19390;51.460;5.710;2023-04-06T02:55:40;29.83;;;17.38;;
33022;SDS011;19390;51.460;5.710;2023-04-06T02:58:05;27.85;;;17.75;;
33022;SDS011;19390;51.460;5.710;2023-04-06T03:00:31;31.50;;;17.52;;
33022;SDS011;19390;51.460;5.710;2023-04-06T03:02:57;32.22;;;17.85;;
33022;SDS011;19390;51.460;5.710;2023-04-06T03:05:22;29.80;;;18.02;;
33022;SDS011;19390;51.460;5.710;2023-04-06T03:07:48;31.00;;;18.23;;
33022;SDS011;19390;51.460;5.710;2023-04-06T03:10:14;30.80;;;19.05;;
33022;SDS011;19390;51.460;5.710;2023-04-06T03:12:40;29.23;;;17.92;;
33022;SDS011;19390;51.460;5.710;2023-04-06T03:15:06;28.45;;;18.17;;
33022;SDS011;19390;51.460;5.710;2023-04-06T03:17:32;34.55;;;19.50;;
33022;SDS011;19390;51.460;5.710;2023-04-06T03:19:58;31.63;;;19.70;;
33022;SDS011;19390;51.460;5.710;2023-04-06T03:22:24;35.78;;;19.88;;
33022;SDS011;19390;51.460;5.710;2023-04-06T03:24:49;35.40;;;19.63;;
33022;SDS011;19390;51.460;5.710;2023-04-06T03:27:15;36.50;;;20.38;;
33022;SDS011;19390;51.460;5.710;2023-04-06T03:29:41;33.70;;;19.98;;
33022;SDS011;19390;51.460;5.710;2023-04-06T03:32:06;34.72;;;20.90;;
33022;SDS011;19390;51.460;5.710;2023-04-06T03:34:32;35.67;;;20.02;;
33022;SDS011;19390;51.460;5.710;2023-04-06T03:36:57;33.70;;;19.58;;
33022;SDS011;19390;51.460;5.710;2023-04-06T03:39:23;30.30;;;19.13;;
33022;SDS011;19390;51.460;5.710;2023-04-06T03:41:49;33.40;;;20.10;;
33022;SDS011;19390;51.460;5.710;2023-04-06T03:44:14;34.40;;;20.17;;
33022;SDS011;19390;51.460;5.710;2023-04-06T03:46:40;40.92;;;22.15;;
33022;SDS011;19390;51.460;5.710;2023-04-06T03:49:05;35.28;;;21.10;;
33022;SDS011;19390;51.460;5.710;2023-04-06T03:51:31;32.03;;;19.83;;
33022;SDS011;19390;51.460;5.710;2023-04-06T03:53:57;33.08;;;19.67;;
33022;SDS011;19390;51.460;5.710;2023-04-06T03:56:23;34.85;;;19.75;;
33022;SDS011;19390;51.460;5.710;2023-04-06T03:58:48;32.60;;;20.20;;
33022;SDS011;19390;51.460;5.710;2023-04-06T04:01:17;35.85;;;21.50;;
33022;SDS011;19390;51.460;5.710;2023-04-06T04:03:43;34.67;;;20.63;;
33022;SDS011;19390;51.460;5.710;2023-04-06T04:06:09;33.78;;;20.77;;
33022;SDS011;19390;51.460;5.710;2023-04-06T04:08:34;35.67;;;21.98;;
33022;SDS011;19390;51.460;5.710;2023-04-06T04:11:00;29.48;;;19.98;;
33022;SDS011;19390;51.460;5.710;2023-04-06T04:13:26;34.40;;;20.67;;
33022;SDS011;19390;51.460;5.710;2023-04-06T04:15:52;36.97;;;21.42;;
33022;SDS011;19390;51.460;5.710;2023-04-06T04:18:18;36.88;;;21.60;;
33022;SDS011;19390;51.460;5.710;2023-04-06T04:20:43;36.35;;;21.35;;
33022;SDS011;19390;51.460;5.710;2023-04-06T04:23:09;33.53;;;20.33;;
33022;SDS011;19390;51.460;5.710;2023-04-06T04:25:35;35.40;;;21.20;;
33022;SDS011;19390;51.460;5.710;2023-04-06T04:28:01;38.50;;;21.33;;
33022;SDS011;19390;51.460;5.710;2023-04-06T04:30:27;37.13;;;22.20;;
33022;SDS011;19390;51.460;5.710;2023-04-06T04:32:52;37.17;;;20.58;;
33022;SDS011;19390;51.460;5.710;2023-04-06T04:35:18;35.58;;;20.80;;
33022;SDS011;19390;51.460;5.710;2023-04-06T04:37:43;35.17;;;21.85;;
33022;SDS011;19390;51.460;5.710;2023-04-06T04:40:09;35.35;;;22.23;;
33022;SDS011;19390;51.460;5.710;2023-04-06T04:42:35;35.75;;;21.52;;
33022;SDS011;19390;51.460;5.710;2023-04-06T04:45:01;35.78;;;21.42;;
33022;SDS011;19390;51.460;5.710;2023-04-06T04:47:26;37.78;;;22.48;;
33022;SDS011;19390;51.460;5.710;2023-04-06T04:49:52;39.33;;;22.33;;
33022;SDS011;19390;51.460;5.710;2023-04-06T04:52:17;39.40;;;22.63;;
33022;SDS011;19390;51.460;5.710;2023-04-06T04:54:43;37.33;;;22.98;;
33022;SDS011;19390;51.460;5.710;2023-04-06T04:57:09;37.95;;;23.08;;
33022;SDS011;19390;51.460;5.710;2023-04-06T04:59:34;37.33;;;23.70;;
33022;SDS011;19390;51.460;5.710;2023-04-06T05:02:00;38.90;;;23.70;;
33022;SDS011;19390;51.460;5.710;2023-04-06T05:04:26;40.00;;;23.33;;
33022;SDS011;19390;51.460;5.710;2023-04-06T05:07:12;36.17;;;23.65;;
33022;SDS011;19390;51.460;5.710;2023-04-06T05:09:37;44.08;;;22.63;;
33022;SDS011;19390;51.460;5.710;2023-04-06T05:12:03;42.97;;;23.20;;
33022;SDS011;19390;51.460;5.710;2023-04-06T05:14:28;37.05;;;22.58;;
33022;SDS011;19390;51.460;5.710;2023-04-06T05:16:54;39.95;;;23.58;;
33022;SDS011;19390;51.460;5.710;2023-04-06T05:19:20;41.17;;;22.98;;
33022;SDS011;19390;51.460;5.710;2023-04-06T05:21:46;39.78;;;22.65;;
33022;SDS011;19390;51.460;5.710;2023-04-06T05:24:11;39.67;;;24.20;;
33022;SDS011;19390;51.460;5.710;2023-04-06T05:26:37;40.85;;;22.95;;
33022;SDS011;19390;51.460;5.710;2023-04-06T05:29:02;42.33;;;24.17;;
33022;SDS011;19390;51.460;5.710;2023-04-06T05:31:28;41.45;;;23.92;;
33022;SDS011;19390;51.460;5.710;2023-04-06T05:33:54;36.92;;;22.95;;
33022;SDS011;19390;51.460;5.710;2023-04-06T05:36:20;34.63;;;22.75;;
33022;SDS011;19390;51.460;5.710;2023-04-06T05:38:46;36.67;;;23.02;;
33022;SDS011;19390;51.460;5.710;2023-04-06T05:41:11;37.35;;;23.02;;
33022;SDS011;19390;51.460;5.710;2023-04-06T05:43:37;37.90;;;22.90;;
33022;SDS011;19390;51.460;5.710;2023-04-06T05:46:03;37.72;;;23.90;;
33022;SDS011;19390;51.460;5.710;2023-04-06T05:48:29;43.83;;;23.77;;
33022;SDS011;19390;51.460;5.710;2023-04-06T05:50:55;37.80;;;22.95;;
33022;SDS011;19390;51.460;5.710;2023-04-06T05:53:20;34.35;;;22.05;;
33022;SDS011;19390;51.460;5.710;2023-04-06T05:55:46;44.90;;;23.13;;
33022;SDS011;19390;51.460;5.710;2023-04-06T05:58:12;36.45;;;23.40;;
33022;SDS011;19390;51.460;5.710;2023-04-06T06:00:37;35.53;;;22.27;;
33022;SDS011;19390;51.460;5.710;2023-04-06T06:03:03;37.55;;;22.00;;
33022;SDS011;19390;51.460;5.710;2023-04-06T06:05:30;38.15;;;21.63;;
33022;SDS011;19390;51.460;5.710;2023-04-06T06:07:56;33.13;;;20.55;;
33022;SDS011;19390;51.460;5.710;2023-04-06T06:10:22;33.00;;;18.88;;
33022;SDS011;19390;51.460;5.710;2023-04-06T06:12:47;38.75;;;20.08;;
33022;SDS011;19390;51.460;5.710;2023-04-06T06:15:13;35.25;;;19.48;;
33022;SDS011;19390;51.460;5.710;2023-04-06T06:17:39;36.30;;;19.52;;
33022;SDS011;19390;51.460;5.710;2023-04-06T06:20:08;33.25;;;19.58;;
33022;SDS011;19390;51.460;5.710;2023-04-06T06:22:33;36.03;;;19.02;;
33022;SDS011;19390;51.460;5.710;2023-04-06T06:24:59;37.30;;;19.40;;
33022;SDS011;19390;51.460;5.710;2023-04-06T06:27:25;33.30;;;19.25;;
33022;SDS011;19390;51.460;5.710;2023-04-06T06:29:51;28.60;;;19.33;;
33022;SDS011;19390;51.460;5.710;2023-04-06T06:32:16;32.17;;;20.33;;
33022;SDS011;19390;51.460;5.710;2023-04-06T06:34:42;32.72;;;20.30;;
33022;SDS011;19390;51.460;5.710;2023-04-06T06:37:08;32.25;;;18.35;;
33022;SDS011;19390;51.460;5.710;2023-04-06T06:39:33;29.33;;;17.77;;
33022;SDS011;19390;51.460;5.710;2023-04-06T06:41:59;30.80;;;18.88;;
33022;SDS011;19390;51.460;5.710;2023-04-06T06:44:27;33.72;;;18.65;;
33022;SDS011;19390;51.460;5.710;2023-04-06T06:46:53;33.40;;;18.83;;
33022;SDS011;19390;51.460;5.710;2023-04-06T06:49:19;35.22;;;18.33;;
33022;SDS011;19390;51.460;5.710;2023-04-06T06:51:45;28.98;;;17.90;;
33022;SDS011;19390;51.460;5.710;2023-04-06T06:54:11;32.05;;;18.25;;
33022;SDS011;19390;51.460;5.710;2023-04-06T06:56:37;31.55;;;18.80;;
33022;SDS011;19390;51.460;5.710;2023-04-06T06:59:04;33.35;;;19.77;;
33022;SDS011;19390;51.460;5.710;2023-04-06T07:01:31;27.02;;;18.00;;
33022;SDS011;19390;51.460;5.710;2023-04-06T07:03:57;30.25;;;18.50;;
33022;SDS011;19390;51.460;5.710;2023-04-06T07:06:23;29.30;;;17.38;;
33022;SDS011;19390;51.460;5.710;2023-04-06T07:08:48;29.85;;;18.45;;
33022;SDS011;19390;51.460;5.710;2023-04-06T07:11:14;33.03;;;19.40;;
33022;SDS011;19390;51.460;5.710;2023-04-06T07:13:40;31.13;;;18.58;;
33022;SDS011;19390;51.460;5.710;2023-04-06T07:16:05;33.33;;;19.58;;
33022;SDS011;19390;51.460;5.710;2023-04-06T07:18:31;30.13;;;17.80;;
33022;SDS011;19390;51.460;5.710;2023-04-06T07:20:56;28.15;;;17.73;;
33022;SDS011;19390;51.460;5.710;2023-04-06T07:23:22;28.42;;;17.92;;
33022;SDS011;19390;51.460;5.710;2023-04-06T07:25:48;34.33;;;17.60;;
33022;SDS011;19390;51.460;5.710;2023-04-06T07:28:17;31.40;;;17.98;;
33022;SDS011;19390;51.460;5.710;2023-04-06T07:30:42;32.00;;;18.77;;
33022;SDS011;19390;51.460;5.710;2023-04-06T07:33:08;31.77;;;17.67;;
33022;SDS011;19390;51.460;5.710;2023-04-06T07:35:34;31.92;;;17.40;;
33022;SDS011;19390;51.460;5.710;2023-04-06T07:38:01;29.25;;;17.80;;
33022;SDS011;19390;51.460;5.710;2023-04-06T07:40:27;29.23;;;17.48;;
33022;SDS011;19390;51.460;5.710;2023-04-06T07:42:53;27.88;;;16.58;;
33022;SDS011;19390;51.460;5.710;2023-04-06T07:45:18;32.63;;;18.58;;
33022;SDS011;19390;51.460;5.710;2023-04-06T07:47:45;29.80;;;17.35;;
33022;SDS011;19390;51.460;5.710;2023-04-06T07:50:11;31.58;;;18.02;;
33022;SDS011;19390;51.460;5.710;2023-04-06T07:52:36;30.15;;;17.42;;
33022;SDS011;19390;51.460;5.710;2023-04-06T07:55:03;28.35;;;17.15;;
33022;SDS011;19390;51.460;5.710;2023-04-06T07:57:29;29.38;;;17.00;;
33022;SDS011;19390;51.460;5.710;2023-04-06T07:59:54;31.25;;;17.30;;
33022;SDS011;19390;51.460;5.710;2023-04-06T08:02:20;32.53;;;17.77;;
33022;SDS011;19390;51.460;5.710;2023-04-06T08:04:46;31.40;;;16.80;;
33022;SDS011;19390;51.460;5.710;2023-04-06T08:07:11;34.13;;;17.55;;
33022;SDS011;19390;51.460;5.710;2023-04-06T08:09:37;30.27;;;17.13;;
33022;SDS011;19390;51.460;5.710;2023-04-06T08:12:03;26.40;;;16.13;;
33022;SDS011;19390;51.460;5.710;2023-04-06T08:14:28;26.25;;;16.05;;
33022;SDS011;19390;51.460;5.710;2023-04-06T08:16:54;28.63;;;17.45;;
33022;SDS011;19390;51.460;5.710;2023-04-06T08:19:20;28.55;;;17.30;;
33022;SDS011;19390;51.460;5.710;2023-04-06T08:21:46;31.15;;;16.38;;
33022;SDS011;19390;51.460;5.710;2023-04-06T08:24:12;32.60;;;17.40;;
33022;SDS011;19390;51.460;5.710;2023-04-06T08:26:38;23.38;;;15.30;;
33022;SDS011;19390;51.460;5.710;2023-04-06T08:29:03;26.95;;;16.42;;
33022;SDS011;19390;51.460;5.710;2023-04-06T08:31:32;27.15;;;15.88;;
33022;SDS011;19390;51.460;5.710;2023-04-06T08:34:01;30.80;;;16.60;;
33022;SDS011;19390;51.460;5.710;2023-04-06T08:36:28;33.55;;;16.02;;
33022;SDS011;19390;51.460;5.710;2023-04-06T08:38:54;27.05;;;15.95;;
33022;SDS011;19390;51.460;5.710;2023-04-06T08:41:19;28.45;;;16.63;;
33022;SDS011;19390;51.460;5.710;2023-04-06T08:43:49;29.30;;;16.17;;
33022;SDS011;19390;51.460;5.710;2023-04-06T08:46:23;23.95;;;15.35;;
33022;SDS011;19390;51.460;5.710;2023-04-06T08:48:55;29.40;;;16.13;;
33022;SDS011;19390;51.460;5.710;2023-04-06T08:51:22;28.90;;;15.60;;
33022;SDS011;19390;51.460;5.710;2023-04-06T08:53:51;28.23;;;15.68;;
33022;SDS011;19390;51.460;5.710;2023-04-06T08:56:19;27.23;;;16.60;;
33022;SDS011;19390;51.460;5.710;2023-04-06T08:58:46;31.45;;;16.67;;
33022;SDS011;19390;51.460;5.710;2023-04-06T09:01:12;29.08;;;16.10;;
33022;SDS011;19390;51.460;5.710;2023-04-06T09:03:40;29.05;;;17.73;;
33022;SDS011;19390;51.460;5.710;2023-04-06T09:06:07;35.58;;;18.40;;
33022;SDS011;19390;51.460;5.710;2023-04-06T09:08:34;32.83;;;17.88;;
33022;SDS011;19390;51.460;5.710;2023-04-06T09:11:01;32.97;;;17.48;;
33022;SDS011;19390;51.460;5.710;2023-04-06T09:13:27;30.88;;;17.85;;
33022;SDS011;19390;51.460;5.710;2023-04-06T09:16:00;32.55;;;16.42;;
33022;SDS011;19390;51.460;5.710;2023-04-06T09:18:31;31.73;;;17.95;;
33022;SDS011;19390;51.460;5.710;2023-04-06T09:21:02;29.65;;;17.17;;
33022;SDS011;19390;51.460;5.710;2023-04-06T09:23:30;28.73;;;16.73;;
33022;SDS011;19390;51.460;5.710;2023-04-06T09:28:51;23.75;;;15.30;;
33022;SDS011;19390;51.460;5.710;2023-04-06T09:31:27;25.75;;;15.68;;
33022;SDS011;19390;51.460;5.710;2023-04-06T09:33:55;33.17;;;17.17;;
33022;SDS011;19390;51.460;5.710;2023-04-06T09:36:34;32.70;;;17.20;;
33022;SDS011;19390;51.460;5.710;2023-04-06T09:39:03;24.83;;;15.20;;
33022;SDS011;19390;51.460;5.710;2023-04-06T09:41:33;24.95;;;15.60;;
33022;SDS011;19390;51.460;5.710;2023-04-06T09:44:03;25.42;;;16.10;;
33022;SDS011;19390;51.460;5.710;2023-04-06T09:49:06;25.13;;;14.77;;
33022;SDS011;19390;51.460;5.710;2023-04-06T09:51:39;25.55;;;15.18;;
33022;SDS011;19390;51.460;5.710;2023-04-06T09:54:07;23.98;;;14.32;;
33022;SDS011;19390;51.460;5.710;2023-04-06T09:56:40;22.08;;;14.88;;
33022;SDS011;19390;51.460;5.710;2023-04-06T10:01:53;24.65;;;14.27;;
33022;SDS011;19390;51.460;5.710;2023-04-06T10:07:43;16.42;;;11.60;;
33022;SDS011;19390;51.460;5.710;2023-04-06T10:10:11;18.75;;;12.02;;
33022;SDS011;19390;51.460;5.710;2023-04-06T10:12:39;20.63;;;12.18;;
33022;SDS011;19390;51.460;5.710;2023-04-06T10:15:05;18.48;;;11.68;;
33022;SDS011;19390;51.460;5.710;2023-04-06T10:17:32;21.30;;;11.90;;
33022;SDS011;19390;51.460;5.710;2023-04-06T10:19:59;21.15;;;12.73;;
33022;SDS011;19390;51.460;5.710;2023-04-06T10:22:36;21.58;;;12.68;;
33022;SDS011;19390;51.460;5.710;2023-04-06T10:25:09;18.60;;;11.70;;
33022;SDS011;19390;51.460;5.710;2023-04-06T10:27:34;23.38;;;12.93;;
33022;SDS011;19390;51.460;5.710;2023-04-06T10:30:03;16.20;;;11.43;;
33022;SDS011;19390;51.460;5.710;2023-04-06T10:32:34;17.25;;;10.57;;
33022;SDS011;19390;51.460;5.710;2023-04-06T10:35:10;18.63;;;10.38;;
33022;SDS011;19390;51.460;5.710;2023-04-06T10:37:50;18.45;;;11.75;;
33022;SDS011;19390;51.460;5.710;2023-04-06T10:40:27;20.48;;;11.50;;
33022;SDS011;19390;51.460;5.710;2023-04-06T10:42:53;18.52;;;11.55;;
33022;SDS011;19390;51.460;5.710;2023-04-06T10:45:20;16.15;;;11.20;;
33022;SDS011;19390;51.460;5.710;2023-04-06T10:47:47;16.42;;;9.65;;
33022;SDS011;19390;51.460;5.710;2023-04-06T10:50:14;17.67;;;10.32;;
33022;SDS011;19390;51.460;5.710;2023-04-06T10:52:44;16.73;;;10.57;;
33022;SDS011;19390;51.460;5.710;2023-04-06T10:55:11;16.38;;;10.05;;
33022;SDS011;19390;51.460;5.710;2023-04-06T10:57:39;14.85;;;10.02;;
33022;SDS011;19390;51.460;5.710;2023-04-06T11:00:06;14.60;;;9.32;;
33022;SDS011;19390;51.460;5.710;2023-04-06T11:02:33;15.15;;;9.05;;
33022;SDS011;19390;51.460;5.710;2023-04-06T11:05:02;12.68;;;8.07;;
33022;SDS011;19390;51.460;5.710;2023-04-06T11:07:28;13.38;;;8.68;;
33022;SDS011;19390;51.460;5.710;2023-04-06T11:09:55;13.15;;;8.95;;
33022;SDS011;19390;51.460;5.710;2023-04-06T11:14:59;14.93;;;9.18;;
33022;SDS011;19390;51.460;5.710;2023-04-06T11:17:31;12.48;;;8.07;;
33022;SDS011;19390;51.460;5.710;2023-04-06T11:20:01;12.88;;;8.98;;
33022;SDS011;19390;51.460;5.710;2023-04-06T11:22:28;13.30;;;8.38;;
33022;SDS011;19390;51.460;5.710;2023-04-06T11:25:05;12.50;;;7.72;;
33022;SDS011;19390;51.460;5.710;2023-04-06T11:27:32;12.48;;;7.35;;
33022;SDS011;19390;51.460;5.710;2023-04-06T11:30:01;8.70;;;5.60;;
33022;SDS011;19390;51.460;5.710;2023-04-06T11:32:28;8.75;;;5.60;;
33022;SDS011;19390;51.460;5.710;2023-04-06T11:34:54;10.23;;;4.75;;
33022;SDS011;19390;51.460;5.710;2023-04-06T11:37:25;8.52;;;5.20;;
33022;SDS011;19390;51.460;5.710;2023-04-06T11:39:53;9.32;;;5.25;;
33022;SDS011;19390;51.460;5.710;2023-04-06T11:42:26;7.13;;;5.20;;
33022;SDS011;19390;51.460;5.710;2023-04-06T11:44:53;9.70;;;5.93;;
33022;SDS011;19390;51.460;5.710;2023-04-06T11:47:27;12.55;;;6.28;;
33022;SDS011;19390;51.460;5.710;2023-04-06T11:50:05;8.48;;;6.07;;
33022;SDS011;19390;51.460;5.710;2023-04-06T11:52:32;12.82;;;6.25;;
33022;SDS011;19390;51.460;5.710;2023-04-06T11:54:57;8.85;;;6.55;;
33022;SDS011;19390;51.460;5.710;2023-04-06T11:57:23;9.43;;;6.55;;
33022;SDS011;19390;51.460;5.710;2023-04-06T11:59:50;9.18;;;6.57;;
33022;SDS011;19390;51.460;5.710;2023-04-06T12:02:16;10.65;;;6.85;;
33022;SDS011;19390;51.460;5.710;2023-04-06T12:04:42;11.57;;;7.45;;
33022;SDS011;19390;51.460;5.710;2023-04-06T12:07:08;11.45;;;7.47;;
33022;SDS011;19390;51.460;5.710;2023-04-06T12:09:34;13.13;;;7.93;;
33022;SDS011;19390;51.460;5.710;2023-04-06T12:12:00;14.00;;;7.88;;
33022;SDS011;19390;51.460;5.710;2023-04-06T12:14:27;16.45;;;8.27;;
33022;SDS011;19390;51.460;5.710;2023-04-06T12:16:52;12.30;;;7.88;;
33022;SDS011;19390;51.460;5.710;2023-04-06T12:19:18;13.75;;;8.20;;
33022;SDS011;19390;51.460;5.710;2023-04-06T12:21:43;11.90;;;7.57;;
33022;SDS011;19390;51.460;5.710;2023-04-06T12:24:09;12.27;;;8.25;;
33022;SDS011;19390;51.460;5.710;2023-04-06T12:26:35;13.48;;;8.45;;
33022;SDS011;19390;51.460;5.710;2023-04-06T12:29:02;13.90;;;8.27;;
33022;SDS011;19390;51.460;5.710;2023-04-06T12:31:37;19.50;;;8.88;;
33022;SDS011;19390;51.460;5.710;2023-04-06T12:34:07;14.43;;;8.65;;
33022;SDS011;19390;51.460;5.710;2023-04-06T12:36:33;14.32;;;8.27;;
33022;SDS011;19390;51.460;5.710;2023-04-06T12:38:59;12.52;;;8.63;;
33022;SDS011;19390;51.460;5.710;2023-04-06T12:41:28;14.90;;;8.68;;
33022;SDS011;19390;51.460;5.710;2023-04-06T12:43:54;14.48;;;9.43;;
33022;SDS011;19390;51.460;5.710;2023-04-06T12:46:20;13.70;;;9.43;;
33022;SDS011;19390;51.460;5.710;2023-04-06T12:48:46;16.10;;;9.63;;
33022;SDS011;19390;51.460;5.710;2023-04-06T12:51:12;14.32;;;9.55;;
33022;SDS011;19390;51.460;5.710;2023-04-06T12:53:38;14.93;;;9.52;;
33022;SDS011;19390;51.460;5.710;2023-04-06T12:56:11;16.02;;;10.10;;
33022;SDS011;19390;51.460;5.710;2023-04-06T12:58:38;16.38;;;10.45;;
33022;SDS011;19390;51.460;5.710;2023-04-06T13:01:06;18.10;;;11.93;;
33022;SDS011;19390;51.460;5.710;2023-04-06T13:03:32;16.48;;;10.40;;
33022;SDS011;19390;51.460;5.710;2023-04-06T13:05:59;16.73;;;10.68;;
33022;SDS011;19390;51.460;5.710;2023-04-06T13:08:25;17.00;;;11.50;;
33022;SDS011;19390;51.460;5.710;2023-04-06T13:10:52;19.40;;;11.20;;
33022;SDS011;19390;51.460;5.710;2023-04-06T13:13:22;19.67;;;11.43;;
33022;SDS011;19390;51.460;5.710;2023-04-06T13:15:49;18.02;;;11.95;;
33022;SDS011;19390;51.460;5.710;2023-04-06T13:18:16;17.52;;;11.70;;
33022;SDS011;19390;51.460;5.710;2023-04-06T13:20:41;19.25;;;11.85;;
33022;SDS011;19390;51.460;5.710;2023-04-06T13:23:07;17.85;;;10.85;;
33022;SDS011;19390;51.460;5.710;2023-04-06T13:25:33;16.00;;;10.75;;
33022;SDS011;19390;51.460;5.710;2023-04-06T13:27:58;18.58;;;10.70;;
33022;SDS011;19390;51.460;5.710;2023-04-06T13:30:24;17.00;;;11.27;;
33022;SDS011;19390;51.460;5.710;2023-04-06T13:32:50;17.30;;;11.05;;
33022;SDS011;19390;51.460;5.710;2023-04-06T13:35:16;16.73;;;11.27;;
33022;SDS011;19390;51.460;5.710;2023-04-06T13:37:42;17.48;;;11.50;;
33022;SDS011;19390;51.460;5.710;2023-04-06T13:40:09;18.00;;;11.30;;
33022;SDS011;19390;51.460;5.710;2023-04-06T13:42:35;15.40;;;10.25;;
33022;SDS011;19390;51.460;5.710;2023-04-06T13:45:01;16.35;;;11.55;;
33022;SDS011;19390;51.460;5.710;2023-04-06T13:47:27;16.63;;;11.02;;
33022;SDS011;19390;51.460;5.710;2023-04-06T13:49:52;15.90;;;10.85;;
33022;SDS011;19390;51.460;5.710;2023-04-06T13:52:20;17.70;;;11.35;;
33022;SDS011;19390;51.460;5.710;2023-04-06T13:54:45;18.35;;;11.48;;
33022;SDS011;19390;51.460;5.710;2023-04-06T13:57:11;15.57;;;10.98;;
33022;SDS011;19390;51.460;5.710;2023-04-06T13:59:37;15.95;;;11.05;;
33022;SDS011;19390;51.460;5.710;2023-04-06T14:02:04;16.20;;;11.30;;
33022;SDS011;19390;51.460;5.710;2023-04-06T14:04:31;18.65;;;12.68;;
33022;SDS011;19390;51.460;5.710;2023-04-06T14:06:58;19.23;;;13.00;;
33022;SDS011;19390;51.460;5.710;2023-04-06T14:09:24;19.48;;;12.80;;
33022;SDS011;19390;51.460;5.710;2023-04-06T14:11:50;18.77;;;12.23;;
33022;SDS011;19390;51.460;5.710;2023-04-06T14:14:16;18.33;;;12.30;;
33022;SDS011;19390;51.460;5.710;2023-04-06T14:16:42;17.60;;;11.90;;
33022;SDS011;19390;51.460;5.710;2023-04-06T14:19:09;20.95;;;12.13;;
33022;SDS011;19390;51.460;5.710;2023-04-06T14:21:37;18.25;;;11.38;;
33022;SDS011;19390;51.460;5.710;2023-04-06T14:24:04;21.95;;;12.35;;
33022;SDS011;19390;51.460;5.710;2023-04-06T14:26:31;16.70;;;11.63;;
33022;SDS011;19390;51.460;5.710;2023-04-06T14:28:57;19.10;;;12.38;;
33022;SDS011;19390;51.460;5.710;2023-04-06T14:31:24;23.17;;;12.85;;
33022;SDS011;19390;51.460;5.710;2023-04-06T14:33:49;20.25;;;12.48;;